Time,TemperatureF,DewpointF,PressureIn,WindDirection,WindDirectionDegrees,WindSpeedMPH,WindSpeedGustMPH,Humidity,HourlyPrecipIn,Conditions,Clouds,dailyrainin,SoftwareType,DateUTC
2013-06-19 00:00:00,60.3,52.7,30.03,ESE,113,1.1,1.1,76,0.00,,,0.00,WUHU216HW,2013-06-19 05:00:00,
2013-06-19 00:05:00,60.3,52.7,30.03,ESE,113,1.3,1.3,76,0.00,,,0.00,WUHU216HW,2013-06-19 05:05:00,
2013-06-19 00:10:00,60.3,52.7,30.03,ESE,113,1.3,1.3,76,0.00,,,0.00,WUHU216HW,2013-06-19 05:10:00,
2013-06-19 00:30:00,61.2,52.9,30.02,SE,135,2.2,2.2,74,0.00,,,0.00,WUHU216HW,2013-06-19 05:30:00,
2013-06-19 00:31:00,61.2,52.9,30.02,SE,135,2.2,2.2,74,0.00,,,0.00,WUHU216HW,2013-06-19 05:31:00,
2013-06-19 00:35:00,61.2,52.9,30.02,SE,135,2.2,2.2,74,0.00,,,0.00,WUHU216HW,2013-06-19 05:35:00,
2013-06-19 00:36:00,61.2,52.9,30.02,SE,135,2.2,2.2,74,0.00,,,0.00,WUHU216HW,2013-06-19 05:36:00,
2013-06-19 00:40:00,61.2,52.9,30.02,SE,135,2.2,2.2,74,0.00,,,0.00,WUHU216HW,2013-06-19 05:40:00,
2013-06-19 01:00:00,62.1,53.0,30.02,SSE,158,2.2,2.2,72,0.00,,,0.00,WUHU216HW,2013-06-19 06:00:00,
2013-06-19 01:01:00,62.3,53.1,30.02,SSE,158,1.5,2.2,72,0.00,,,0.00,WUHU216HW,2013-06-19 06:01:00,
2013-06-19 01:05:00,62.3,53.1,30.02,SSE,158,1.1,2.2,72,0.00,,,0.00,WUHU216HW,2013-06-19 06:05:00,
2013-06-19 01:06:00,62.3,53.1,30.02,SSE,158,1.1,2.2,72,0.00,,,0.00,WUHU216HW,2013-06-19 06:06:00,
2013-06-19 01:30:00,61.7,51.9,30.03,SE,135,1.8,1.8,70,0.00,,,0.00,WUHU216HW,2013-06-19 06:30:00,
2013-06-19 01:31:00,61.6,51.8,30.03,SE,135,1.8,1.8,70,0.00,,,0.00,WUHU216HW,2013-06-19 06:31:00,
2013-06-19 01:35:00,61.6,51.8,30.03,SE,135,1.8,1.8,70,0.00,,,0.00,WUHU216HW,2013-06-19 06:35:00,
2013-06-19 01:36:00,61.6,51.8,30.03,SE,135,1.8,1.8,70,0.00,,,0.00,WUHU216HW,2013-06-19 06:36:00,
2013-06-19 02:00:00,61.4,51.2,30.03,SE,135,1.8,1.8,69,0.00,,,0.00,WUHU216HW,2013-06-19 07:00:00,
2013-06-19 02:01:00,61.4,51.2,30.02,ESE,113,2.5,2.5,69,0.00,,,0.00,WUHU216HW,2013-06-19 07:01:00,
2013-06-19 02:05:00,61.4,51.2,30.02,ESE,113,2.5,2.5,69,0.00,,,0.00,WUHU216HW,2013-06-19 07:05:00,
2013-06-19 02:06:00,61.4,51.2,30.02,ESE,113,2.5,2.5,69,0.00,,,0.00,WUHU216HW,2013-06-19 07:06:00,
2013-06-19 02:10:00,61.4,51.2,30.02,ESE,113,2.5,2.5,69,0.00,,,0.00,WUHU216HW,2013-06-19 07:10:00,
2013-06-19 02:30:00,61.0,50.9,30.01,East,90,3.1,3.1,69,0.00,,,0.00,WUHU216HW,2013-06-19 07:30:00,
2013-06-19 02:35:00,61.0,50.9,30.01,ESE,113,2.5,3.1,69,0.00,,,0.00,WUHU216HW,2013-06-19 07:35:00,
2013-06-19 02:36:00,61.0,50.9,30.01,ESE,113,2.5,3.1,69,0.00,,,0.00,WUHU216HW,2013-06-19 07:36:00,
2013-06-19 03:00:00,60.7,50.9,30.01,ESE,113,2.5,2.5,70,0.00,,,0.00,WUHU216HW,2013-06-19 08:00:00,
2013-06-19 03:05:00,60.7,50.9,30.01,ESE,113,2.5,2.9,70,0.00,,,0.00,WUHU216HW,2013-06-19 08:05:00,
2013-06-19 03:10:00,60.7,50.9,30.01,ESE,113,2.5,2.9,70,0.00,,,0.00,WUHU216HW,2013-06-19 08:10:00,
2013-06-19 03:30:00,59.8,51.1,30.01,ESE,113,2.2,2.2,73,0.00,,,0.00,WUHU216HW,2013-06-19 08:30:00,
2013-06-19 03:35:00,59.8,51.1,30.01,SE,135,2.2,2.2,73,0.00,,,0.00,WUHU216HW,2013-06-19 08:35:00,
2013-06-19 03:36:00,59.8,51.1,30.01,SE,135,2.2,2.2,73,0.00,,,0.00,WUHU216HW,2013-06-19 08:36:00,
2013-06-19 04:00:00,59.6,50.9,30.01,ESE,113,2.5,2.5,73,0.00,,,0.00,WUHU216HW,2013-06-19 09:00:00,
2013-06-19 04:05:00,59.6,50.9,30.01,SE,135,2.5,2.5,73,0.00,,,0.00,WUHU216HW,2013-06-19 09:05:00,
2013-06-19 04:30:00,59.2,50.9,30.01,ESE,113,1.8,1.8,74,0.00,,,0.00,WUHU216HW,2013-06-19 09:30:00,
2013-06-19 04:35:00,59.2,50.9,30.01,ESE,113,1.8,1.8,74,0.00,,,0.00,WUHU216HW,2013-06-19 09:35:00,
2013-06-19 04:36:00,59.2,50.9,30.01,ESE,113,1.8,1.8,74,0.00,,,0.00,WUHU216HW,2013-06-19 09:36:00,
2013-06-19 04:40:00,59.2,50.9,30.01,ESE,113,1.8,1.8,74,0.00,,,0.00,WUHU216HW,2013-06-19 09:40:00,
2013-06-19 05:00:00,58.3,50.4,30.01,SE,135,3.8,3.8,75,0.00,,,0.00,WUHU216HW,2013-06-19 10:00:00,
2013-06-19 05:05:00,58.3,50.4,30.02,SE,135,4.3,4.3,75,0.00,,,0.00,WUHU216HW,2013-06-19 10:05:00,
2013-06-19 05:10:00,58.3,50.4,30.02,SE,135,4.3,4.3,75,0.00,,,0.00,WUHU216HW,2013-06-19 10:10:00,
2013-06-19 05:30:00,58.9,50.9,30.03,ESE,113,2.0,2.0,75,0.00,,,0.00,WUHU216HW,2013-06-19 10:30:00,
2013-06-19 05:31:00,58.9,50.9,30.03,ESE,113,2.5,2.5,75,0.00,,,0.00,WUHU216HW,2013-06-19 10:31:00,
2013-06-19 05:35:00,58.9,50.9,30.03,ESE,113,2.5,2.5,75,0.00,,,0.00,WUHU216HW,2013-06-19 10:35:00,
2013-06-19 05:36:00,58.9,50.9,30.03,ESE,113,2.5,2.5,75,0.00,,,0.00,WUHU216HW,2013-06-19 10:36:00,
2013-06-19 05:40:00,58.9,50.9,30.03,ESE,113,2.5,2.5,75,0.00,,,0.00,WUHU216HW,2013-06-19 10:40:00,
2013-06-19 06:00:00,59.9,51.7,30.03,SSE,158,2.9,2.9,74,0.00,,,0.00,WUHU216HW,2013-06-19 11:00:00,
2013-06-19 06:05:00,59.9,51.7,30.03,SE,135,1.8,2.9,74,0.00,,,0.00,WUHU216HW,2013-06-19 11:05:00,
2013-06-19 06:10:00,59.9,51.7,30.03,SE,135,1.8,1.8,74,0.00,,,0.00,WUHU216HW,2013-06-19 11:10:00,
2013-06-19 06:30:00,61.2,52.6,30.04,SE,135,4.7,4.7,73,0.00,,,0.00,WUHU216HW,2013-06-19 11:30:00,
2013-06-19 06:35:00,61.2,52.6,30.04,SSE,158,4.0,4.7,73,0.00,,,0.00,WUHU216HW,2013-06-19 11:35:00,
2013-06-19 06:36:00,61.2,52.6,30.04,SSE,158,4.0,4.7,73,0.00,,,0.00,WUHU216HW,2013-06-19 11:36:00,
2013-06-19 06:40:00,61.2,52.6,30.04,SSE,158,4.0,4.0,73,0.00,,,0.00,WUHU216HW,2013-06-19 11:40:00,
2013-06-19 07:00:00,63.7,54.2,30.04,East,90,6.3,6.3,71,0.00,,,0.00,WUHU216HW,2013-06-19 12:00:00,
2013-06-19 07:05:00,63.7,54.2,30.04,SSE,158,2.9,6.3,71,0.00,,,0.00,WUHU216HW,2013-06-19 12:05:00,
2013-06-19 07:06:00,63.7,54.2,30.04,SSE,158,2.9,6.3,71,0.00,,,0.00,WUHU216HW,2013-06-19 12:06:00,
2013-06-19 07:30:00,65.5,55.5,30.04,ESE,113,6.7,6.7,70,0.00,,,0.00,WUHU216HW,2013-06-19 12:30:00,
2013-06-19 07:35:00,65.3,55.4,30.04,ESE,113,6.7,6.7,70,0.00,,,0.00,WUHU216HW,2013-06-19 12:35:00,
2013-06-19 07:36:00,65.3,55.4,30.04,ESE,113,6.7,6.7,70,0.00,,,0.00,WUHU216HW,2013-06-19 12:36:00,
2013-06-19 07:40:00,65.3,55.4,30.04,ESE,113,6.7,6.7,70,0.00,,,0.00,WUHU216HW,2013-06-19 12:40:00,
2013-06-19 08:00:00,68.0,56.7,30.03,South,180,5.4,5.4,67,0.00,,,0.00,WUHU216HW,2013-06-19 13:00:00,
2013-06-19 08:05:00,68.0,56.7,30.03,SE,135,4.3,5.4,67,0.00,,,0.00,WUHU216HW,2013-06-19 13:05:00,
2013-06-19 08:30:00,70.6,58.2,30.03,SE,135,5.4,5.4,65,0.00,,,0.00,WUHU216HW,2013-06-19 13:30:00,
2013-06-19 08:31:00,70.6,58.2,30.03,SSE,158,5.6,5.6,65,0.00,,,0.00,WUHU216HW,2013-06-19 13:31:00,
2013-06-19 08:35:00,70.6,58.2,30.03,SSE,158,5.6,5.6,65,0.00,,,0.00,WUHU216HW,2013-06-19 13:35:00,
2013-06-19 08:36:00,70.6,58.2,30.03,SSE,158,5.6,5.6,65,0.00,,,0.00,WUHU216HW,2013-06-19 13:36:00,
2013-06-19 09:00:00,72.0,59.1,30.03,SW,225,4.7,4.7,64,0.00,,,0.00,WUHU216HW,2013-06-19 14:00:00,
2013-06-19 09:05:00,72.0,59.1,30.03,SW,225,4.7,4.7,64,0.00,,,0.00,WUHU216HW,2013-06-19 14:05:00,
2013-06-19 09:30:00,73.8,59.5,30.02,ESE,113,5.4,5.4,61,0.00,,,0.00,WUHU216HW,2013-06-19 14:30:00,
2013-06-19 09:35:00,73.8,59.5,30.03,ESE,113,5.4,5.4,61,0.00,,,0.00,WUHU216HW,2013-06-19 14:35:00,
2013-06-19 10:00:00,76.0,60.1,30.03,SSE,158,4.7,4.7,58,0.00,,,0.00,WUHU216HW,2013-06-19 15:00:00,
2013-06-19 10:05:00,76.0,60.1,30.03,SSE,158,4.7,4.7,58,0.00,,,0.00,WUHU216HW,2013-06-19 15:05:00,
2013-06-19 10:06:00,76.0,60.1,30.03,SSE,158,4.7,4.7,58,0.00,,,0.00,WUHU216HW,2013-06-19 15:06:00,
2013-06-19 10:30:00,76.9,60.9,30.02,ESE,113,3.1,3.1,58,0.00,,,0.00,WUHU216HW,2013-06-19 15:30:00,
2013-06-19 10:35:00,76.9,60.4,30.03,SSE,158,3.4,3.4,57,0.00,,,0.00,WUHU216HW,2013-06-19 15:35:00,
2013-06-19 10:36:00,76.9,60.4,30.03,SSE,158,3.4,3.4,57,0.00,,,0.00,WUHU216HW,2013-06-19 15:36:00,
2013-06-19 11:00:00,79.6,60.9,30.02,SSE,158,6.0,6.0,53,0.00,,,0.00,WUHU216HW,2013-06-19 16:00:00,
2013-06-19 11:05:00,79.6,60.9,30.02,SE,135,3.8,6.0,53,0.00,,,0.00,WUHU216HW,2013-06-19 16:05:00,
2013-06-19 11:10:00,79.6,60.9,30.02,SE,135,3.8,4.0,53,0.00,,,0.00,WUHU216HW,2013-06-19 16:10:00,
2013-06-19 11:30:00,78.3,60.8,30.01,SE,135,4.7,4.7,55,0.00,,,0.00,WUHU216HW,2013-06-19 16:30:00,
2013-06-19 11:31:00,78.3,60.8,30.01,SE,135,4.7,4.7,55,0.00,,,0.00,WUHU216HW,2013-06-19 16:31:00,
2013-06-19 11:35:00,78.3,60.8,30.01,SE,135,4.7,4.7,55,0.00,,,0.00,WUHU216HW,2013-06-19 16:35:00,
2013-06-19 11:36:00,78.3,60.8,30.01,SE,135,4.7,4.7,55,0.00,,,0.00,WUHU216HW,2013-06-19 16:36:00,
2013-06-19 12:00:00,80.1,60.8,30.01,SE,135,5.4,5.4,52,0.00,,,0.00,WUHU216HW,2013-06-19 17:00:00,
2013-06-19 12:05:00,80.1,60.8,30.01,SE,135,8.9,8.9,52,0.00,,,0.00,WUHU216HW,2013-06-19 17:05:00,
2013-06-19 12:10:00,80.1,60.8,30.01,SE,135,8.9,8.9,52,0.00,,,0.00,WUHU216HW,2013-06-19 17:10:00,
2013-06-19 12:30:00,79.7,61.6,29.99,ENE,68,3.4,3.4,54,0.00,,,0.00,WUHU216HW,2013-06-19 17:30:00,
2013-06-19 12:31:00,79.7,61.6,29.99,ENE,68,3.4,3.4,54,0.00,,,0.00,WUHU216HW,2013-06-19 17:31:00,
2013-06-19 12:32:00,80.1,61.4,30.00,South,180,4.0,4.0,53,0.00,,,0.00,WUHU216HW,2013-06-19 17:32:00,
2013-06-19 12:36:00,80.1,61.4,30.00,South,180,4.0,4.3,53,0.00,,,0.00,WUHU216HW,2013-06-19 17:36:00,
2013-06-19 12:41:00,80.1,61.4,30.00,South,180,4.0,4.0,53,0.00,,,0.00,WUHU216HW,2013-06-19 17:41:00,
2013-06-19 13:00:00,81.5,61.7,29.99,East,90,1.8,1.8,51,0.00,,,0.00,WUHU216HW,2013-06-19 18:00:00,
2013-06-19 13:05:00,81.7,61.8,29.99,East,90,1.8,1.8,51,0.00,,,0.00,WUHU216HW,2013-06-19 18:05:00,
2013-06-19 13:30:00,81.2,60.2,29.99,ESE,113,5.4,5.4,49,0.00,,,0.00,WUHU216HW,2013-06-19 18:30:00,
2013-06-19 13:31:00,81.2,60.2,29.99,ESE,113,5.4,5.4,49,0.00,,,0.00,WUHU216HW,2013-06-19 18:31:00,
2013-06-19 13:35:00,81.2,60.2,29.99,ESE,113,5.4,5.4,49,0.00,,,0.00,WUHU216HW,2013-06-19 18:35:00,
2013-06-19 13:36:00,81.2,60.2,29.99,ESE,113,5.4,5.4,49,0.00,,,0.00,WUHU216HW,2013-06-19 18:36:00,
2013-06-19 14:00:00,82.6,58.4,29.99,South,180,9.4,9.4,44,0.00,,,0.00,WUHU216HW,2013-06-19 19:00:00,
2013-06-19 14:05:00,82.6,58.4,29.99,South,180,9.4,9.4,44,0.00,,,0.00,WUHU216HW,2013-06-19 19:05:00,
2013-06-19 14:30:00,84.4,57.6,29.98,South,180,6.3,6.3,40,0.00,,,0.00,WUHU216HW,2013-06-19 19:30:00,
2013-06-19 14:35:00,84.4,57.6,29.98,South,180,6.3,6.3,40,0.00,,,0.00,WUHU216HW,2013-06-19 19:35:00,
2013-06-19 15:30:00,81.7,59.4,29.97,ESE,113,8.1,8.1,47,0.00,,,0.00,WUHU216HW,2013-06-19 20:30:00,
2013-06-19 15:35:00,81.7,59.4,29.97,ESE,113,8.1,8.1,47,0.00,,,0.00,WUHU216HW,2013-06-19 20:35:00,
2013-06-19 16:00:00,84.1,59.8,29.96,SSE,158,2.2,2.2,44,0.00,,,0.00,WUHU216HW,2013-06-19 21:00:00,
2013-06-19 16:01:00,84.4,60.8,29.96,SSE,163,3.2,4.7,45,0.00,,,0.00,WUHU216HW,2013-06-19 21:01:00,
2013-06-19 16:05:00,84.6,60.9,29.96,SSE,158,2.7,4.7,45,0.00,,,0.00,WUHU216HW,2013-06-19 21:05:00,
2013-06-19 16:06:00,84.6,60.9,29.96,SSE,158,2.7,4.7,45,0.00,,,0.00,WUHU216HW,2013-06-19 21:06:00,
2013-06-19 16:10:00,84.6,60.9,29.96,SSE,158,2.7,4.7,45,0.00,,,0.00,WUHU216HW,2013-06-19 21:10:00,
2013-06-19 16:31:00,83.0,60.0,29.95,ESE,113,9.2,9.2,46,0.00,,,0.00,WUHU216HW,2013-06-19 21:31:00,
2013-06-19 16:34:00,83.0,60.0,29.95,ESE,113,9.2,9.2,46,0.00,,,0.00,WUHU216HW,2013-06-19 21:34:00,
2013-06-19 16:39:00,83.0,60.0,29.95,ESE,113,9.2,9.2,46,0.00,,,0.00,WUHU216HW,2013-06-19 21:39:00,
2013-06-19 17:00:00,85.0,61.8,29.95,SSE,158,2.5,2.5,46,0.00,,,0.00,WUHU216HW,2013-06-19 22:00:00,
2013-06-19 17:01:00,85.5,63.0,29.95,SE,135,6.3,6.3,47,0.00,,,0.00,WUHU216HW,2013-06-19 22:01:00,
2013-06-19 17:05:00,85.5,63.0,29.95,SE,135,6.3,6.3,47,0.00,,,0.00,WUHU216HW,2013-06-19 22:05:00,
2013-06-19 17:10:00,85.5,63.0,29.95,SE,135,6.3,6.3,47,0.00,,,0.00,WUHU216HW,2013-06-19 22:10:00,
2013-06-19 17:31:00,84.6,61.6,29.94,East,90,4.5,4.5,46,0.00,,,0.00,WUHU216HW,2013-06-19 22:31:00,
2013-06-19 17:32:00,84.6,61.6,29.94,SSE,158,4.9,4.9,46,0.00,,,0.00,WUHU216HW,2013-06-19 22:32:00,
2013-06-19 17:36:00,84.6,61.6,29.94,SSE,158,4.9,4.9,46,0.00,,,0.00,WUHU216HW,2013-06-19 22:36:00,
2013-06-19 17:37:00,84.6,61.6,29.94,SSE,158,4.9,4.9,46,0.00,,,0.00,WUHU216HW,2013-06-19 22:37:00,
2013-06-19 17:38:00,84.6,61.6,29.94,SSE,158,4.9,4.9,46,0.00,,,0.00,WUHU216HW,2013-06-19 22:38:00,
2013-06-19 17:41:00,84.6,61.6,29.94,SSE,158,4.9,4.9,46,0.00,,,0.00,WUHU216HW,2013-06-19 22:41:00,
2013-06-19 18:00:00,83.5,61.1,29.94,ESE,113,7.6,7.6,47,0.00,,,0.00,WUHU216HW,2013-06-19 23:00:00,
2013-06-19 18:05:00,83.5,61.1,29.94,ESE,113,7.4,7.6,47,0.00,,,0.00,WUHU216HW,2013-06-19 23:05:00,
2013-06-19 18:06:00,83.5,61.1,29.94,ESE,113,7.4,7.6,47,0.00,,,0.00,WUHU216HW,2013-06-19 23:06:00,
2013-06-19 18:10:00,83.5,61.1,29.94,ESE,113,7.4,7.6,47,0.00,,,0.00,WUHU216HW,2013-06-19 23:10:00,
2013-06-19 18:30:00,83.9,60.8,29.94,ESE,113,9.8,9.8,46,0.00,,,0.00,WUHU216HW,2013-06-19 23:30:00,
2013-06-19 18:31:00,83.9,60.8,29.94,ESE,113,9.8,9.8,46,0.00,,,0.00,WUHU216HW,2013-06-19 23:31:00,
2013-06-19 18:35:00,83.9,60.8,29.94,ESE,113,9.8,9.8,46,0.00,,,0.00,WUHU216HW,2013-06-19 23:35:00,
2013-06-19 18:36:00,83.9,60.8,29.94,ESE,113,9.8,9.8,46,0.00,,,0.00,WUHU216HW,2013-06-19 23:36:00,
2013-06-19 18:37:00,83.9,60.8,29.94,ESE,113,9.8,9.8,46,0.00,,,0.00,WUHU216HW,2013-06-19 23:37:00,
2013-06-19 19:00:00,82.8,61.7,29.94,SE,135,5.4,5.4,49,0.00,,,0.00,WUHU216HW,2013-06-20 00:00:00,
2013-06-19 19:05:00,82.8,61.7,29.94,SSE,158,6.5,6.5,49,0.00,,,0.00,WUHU216HW,2013-06-20 00:05:00,
2013-06-19 19:30:00,82.8,61.7,29.94,SE,135,4.7,4.7,49,0.00,,,0.00,WUHU216HW,2013-06-20 00:30:00,
2013-06-19 19:35:00,82.8,61.7,29.94,SE,135,7.4,7.4,49,0.00,,,0.00,WUHU216HW,2013-06-20 00:35:00,
2013-06-19 19:36:00,82.8,61.7,29.94,SE,135,7.4,7.4,49,0.00,,,0.00,WUHU216HW,2013-06-20 00:36:00,
2013-06-19 20:00:00,81.0,62.2,29.93,ENE,68,4.5,4.5,53,0.00,,,0.00,WUHU216HW,2013-06-20 01:00:00,
2013-06-19 20:05:00,81.0,61.7,29.93,East,90,5.4,5.4,52,0.00,,,0.00,WUHU216HW,2013-06-20 01:05:00,
2013-06-19 20:06:00,81.0,61.7,29.93,East,90,5.4,5.4,52,0.00,,,0.00,WUHU216HW,2013-06-20 01:06:00,
2013-06-19 20:30:00,78.3,61.8,29.93,ESE,113,3.1,3.1,57,0.00,,,0.00,WUHU216HW,2013-06-20 01:30:00,
2013-06-19 20:35:00,78.1,61.7,29.93,SE,135,4.5,4.5,57,0.00,,,0.00,WUHU216HW,2013-06-20 01:35:00,
2013-06-19 20:40:00,78.1,61.7,29.93,SE,135,4.5,4.5,57,0.00,,,0.00,WUHU216HW,2013-06-20 01:40:00,
2013-06-19 21:00:00,76.3,61.9,29.93,ESE,113,2.5,2.5,61,0.00,,,0.00,WUHU216HW,2013-06-20 02:00:00,
2013-06-19 21:05:00,76.3,61.9,29.93,East,90,4.3,4.3,61,0.00,,,0.00,WUHU216HW,2013-06-20 02:05:00,
2013-06-19 21:06:00,76.3,61.9,29.93,East,90,4.3,4.3,61,0.00,,,0.00,WUHU216HW,2013-06-20 02:06:00,
2013-06-19 21:10:00,76.3,61.9,29.93,East,90,4.3,4.3,61,0.00,,,0.00,WUHU216HW,2013-06-20 02:10:00,
2013-06-19 22:00:00,74.0,61.0,29.95,SSE,158,2.7,2.7,64,0.00,,,0.00,WUHU216HW,2013-06-20 03:00:00,
2013-06-19 22:05:00,73.8,60.9,29.95,ESE,113,6.5,6.5,64,0.00,,,0.00,WUHU216HW,2013-06-20 03:05:00,
2013-06-19 22:10:00,73.8,60.9,29.95,ESE,113,6.5,6.5,64,0.00,,,0.00,WUHU216HW,2013-06-20 03:10:00,
2013-06-19 22:30:00,73.1,60.6,29.96,SE,135,4.9,4.9,65,0.00,,,0.00,WUHU216HW,2013-06-20 03:30:00,
2013-06-19 22:31:00,73.1,60.6,29.96,SE,135,4.7,4.7,65,0.00,,,0.00,WUHU216HW,2013-06-20 03:31:00,
2013-06-19 22:35:00,73.1,60.6,29.96,SE,135,4.7,4.9,65,0.00,,,0.00,WUHU216HW,2013-06-20 03:35:00,
2013-06-19 22:36:00,73.1,60.6,29.96,SE,135,4.7,4.9,65,0.00,,,0.00,WUHU216HW,2013-06-20 03:36:00,
2013-06-19 22:40:00,73.1,60.6,29.96,SE,135,4.7,4.7,65,0.00,,,0.00,WUHU216HW,2013-06-20 03:40:00,
2013-06-19 22:41:00,73.1,60.6,29.96,SE,135,4.7,4.7,65,0.00,,,0.00,WUHU216HW,2013-06-20 03:41:00,
2013-06-19 23:00:00,72.5,60.0,29.96,SSE,158,6.0,6.0,65,0.00,,,0.00,WUHU216HW,2013-06-20 04:00:00,
2013-06-19 23:01:00,72.5,60.0,29.96,SSE,151,5.8,6.0,65,0.00,,,0.00,WUHU216HW,2013-06-20 04:01:00,
2013-06-19 23:06:00,72.5,60.0,29.96,SE,135,5.4,6.0,65,0.00,,,0.00,WUHU216HW,2013-06-20 04:06:00,
2013-06-19 23:30:00,72.0,60.0,29.96,SE,135,5.4,5.4,66,0.00,,,0.00,WUHU216HW,2013-06-20 04:30:00,
2013-06-19 23:35:00,72.0,60.0,29.96,SE,135,5.6,5.6,66,0.00,,,0.00,WUHU216HW,2013-06-20 04:35:00,
2013-06-19 23:36:00,72.0,60.0,29.96,SE,135,5.6,5.6,66,0.00,,,0.00,WUHU216HW,2013-06-20 04:36:00,
2013-06-19 23:40:00,72.0,60.0,29.96,SE,135,5.6,5.6,66,0.00,,,0.00,WUHU216HW,2013-06-20 04:40:00,